createdAt,value
2018-08-09T00:00:33.586Z,954.78
2018-08-09T00:01:33.621Z,954.75
2018-08-09T00:02:33.582Z,954.74
2018-08-09T00:03:33.581Z,954.77
2018-08-09T00:04:33.578Z,954.75
2018-08-09T00:05:33.575Z,954.77
2018-08-09T00:06:33.574Z,954.72
2018-08-09T00:07:33.572Z,954.75
2018-08-09T00:08:33.571Z,954.75
2018-08-09T00:09:33.569Z,954.73
2018-08-09T00:10:33.567Z,954.71
2018-08-09T00:11:33.565Z,954.72
2018-08-09T00:12:33.563Z,954.72
2018-08-09T00:13:33.561Z,954.74
2018-08-09T00:14:33.561Z,954.65
2018-08-09T00:15:33.559Z,954.67
2018-08-09T00:16:33.557Z,954.67
2018-08-09T00:17:33.553Z,954.67
2018-08-09T00:18:33.554Z,954.67
2018-08-09T00:19:33.552Z,954.62
2018-08-09T00:20:33.549Z,954.64
2018-08-09T00:21:33.550Z,954.63
2018-08-09T00:22:33.545Z,954.63
2018-08-09T00:23:33.543Z,954.63
2018-08-09T00:24:33.541Z,954.62
2018-08-09T00:25:33.540Z,954.66
2018-08-09T00:26:33.537Z,954.64
2018-08-09T00:27:33.536Z,954.62
2018-08-09T00:28:33.534Z,954.62
2018-08-09T00:29:33.533Z,954.63
2018-08-09T00:30:33.535Z,954.61
2018-08-09T00:31:33.528Z,954.63
2018-08-09T00:32:33.526Z,954.58
2018-08-09T00:33:33.527Z,954.61
2018-08-09T00:34:33.526Z,954.62
2018-08-09T00:35:33.522Z,954.58
2018-08-09T00:36:33.526Z,954.61
2018-08-09T00:37:33.517Z,954.6
2018-08-09T00:38:33.515Z,954.57
2018-08-09T00:39:33.514Z,954.59
2018-08-09T00:40:33.511Z,954.56
2018-08-09T00:41:33.510Z,954.58
2018-08-09T00:42:33.508Z,954.53
2018-08-09T00:43:33.505Z,954.53
2018-08-09T00:44:33.503Z,954.56
2018-08-09T00:45:33.501Z,954.57
2018-08-09T00:46:33.501Z,954.54
2018-08-09T00:47:33.498Z,954.52
2018-08-09T00:48:33.496Z,954.53
2018-08-09T00:49:33.493Z,954.52
2018-08-09T00:50:33.490Z,954.47
2018-08-09T00:51:33.489Z,954.51
2018-08-09T00:52:33.490Z,954.52
2018-08-09T00:53:33.484Z,954.56
2018-08-09T00:54:33.481Z,954.58
2018-08-09T00:55:33.502Z,954.58
2018-08-09T00:56:33.477Z,954.55
2018-08-09T00:57:33.475Z,954.58
2018-08-09T00:58:33.473Z,954.6
2018-08-09T00:59:33.471Z,954.54
2018-08-09T01:00:33.468Z,954.56
2018-08-09T01:01:33.466Z,954.56
2018-08-09T01:02:33.464Z,954.54
2018-08-09T01:03:33.461Z,954.52
2018-08-09T01:04:33.460Z,954.52
2018-08-09T01:05:33.457Z,954.53
2018-08-09T01:06:33.457Z,954.52
2018-08-09T01:07:33.453Z,954.53
2018-08-09T01:08:33.451Z,954.49
2018-08-09T01:09:33.447Z,954.5
2018-08-09T01:10:33.445Z,954.55
2018-08-09T01:11:33.443Z,954.54
2018-08-09T01:12:33.441Z,954.52
2018-08-09T01:13:33.442Z,954.54
2018-08-09T01:14:33.437Z,954.55
2018-08-09T01:15:33.435Z,954.6
2018-08-09T01:16:33.433Z,954.54
2018-08-09T01:17:33.433Z,954.53
2018-08-09T01:18:33.430Z,954.56
2018-08-09T01:19:33.424Z,954.54
2018-08-09T01:20:33.423Z,954.57
2018-08-09T01:21:33.422Z,954.54
2018-08-09T01:22:33.418Z,954.51
2018-08-09T01:23:33.415Z,954.51
2018-08-09T01:24:33.413Z,954.5
2018-08-09T01:25:33.411Z,954.49
2018-08-09T01:26:33.408Z,954.51
2018-08-09T01:27:33.411Z,954.5
2018-08-09T01:28:33.404Z,954.5
2018-08-09T01:29:33.401Z,954.53
2018-08-09T01:30:33.399Z,954.55
2018-08-09T01:31:33.395Z,954.56
2018-08-09T01:32:33.398Z,954.55
2018-08-09T01:33:33.395Z,954.54
2018-08-09T01:34:33.389Z,954.53
2018-08-09T01:35:33.389Z,954.53
2018-08-09T01:36:33.382Z,954.54
2018-08-09T01:37:33.381Z,954.52
2018-08-09T01:38:33.382Z,954.55
2018-08-09T01:39:33.374Z,954.51
2018-08-09T01:40:33.372Z,954.56
2018-08-09T01:41:33.371Z,954.56
2018-08-09T01:42:33.372Z,954.56
2018-08-09T01:43:33.365Z,954.54
2018-08-09T01:44:33.362Z,954.58
2018-08-09T01:45:33.359Z,954.57
2018-08-09T01:46:33.357Z,954.58
2018-08-09T01:47:33.354Z,954.59
2018-08-09T01:48:33.351Z,954.63
2018-08-09T01:49:33.349Z,954.57
2018-08-09T01:50:33.347Z,954.58
2018-08-09T01:51:33.344Z,954.63
2018-08-09T01:52:33.342Z,954.58
2018-08-09T01:53:33.340Z,954.6
2018-08-09T01:54:33.336Z,954.6
2018-08-09T01:55:33.333Z,954.62
2018-08-09T01:56:33.330Z,954.64
2018-08-09T01:57:33.327Z,954.65
2018-08-09T01:58:33.324Z,954.64
2018-08-09T01:59:33.323Z,954.66
2018-08-09T02:00:33.321Z,954.64
2018-08-09T02:01:33.319Z,954.64
2018-08-09T02:02:33.316Z,954.6
2018-08-09T02:03:33.313Z,954.61
2018-08-09T02:04:33.333Z,954.63
2018-08-09T02:05:33.309Z,954.59
2018-08-09T02:06:33.304Z,954.6
2018-08-09T02:07:33.303Z,954.58
2018-08-09T02:08:33.317Z,954.61
2018-08-09T02:09:33.296Z,954.62
2018-08-09T02:10:33.293Z,954.6
2018-08-09T02:11:33.290Z,954.62
2018-08-09T02:12:33.287Z,954.67
2018-08-09T02:13:33.286Z,954.62
2018-08-09T02:14:33.282Z,954.65
2018-08-09T02:15:33.281Z,954.65
2018-08-09T02:16:33.276Z,954.68
2018-08-09T02:17:33.276Z,954.66
2018-08-09T02:18:33.274Z,954.65
2018-08-09T02:19:33.270Z,954.66
2018-08-09T02:20:33.267Z,954.68
2018-08-09T02:21:33.263Z,954.69
2018-08-09T02:22:33.260Z,954.65
2018-08-09T02:23:33.258Z,954.66
2018-08-09T02:24:33.254Z,954.67
2018-08-09T02:25:33.252Z,954.66
2018-08-09T02:26:33.250Z,954.65
2018-08-09T02:27:33.244Z,954.66
2018-08-09T02:28:33.243Z,954.64
2018-08-09T02:29:33.244Z,954.65
2018-08-09T02:30:33.252Z,954.6
2018-08-09T02:31:33.234Z,954.62
2018-08-09T02:32:33.231Z,954.58
2018-08-09T02:33:33.232Z,954.57
2018-08-09T02:34:33.226Z,954.56
2018-08-09T02:35:33.223Z,954.58
2018-08-09T02:36:33.220Z,954.56
2018-08-09T02:37:33.218Z,954.54
2018-08-09T02:38:33.219Z,954.55
2018-08-09T02:39:33.212Z,954.49
2018-08-09T02:40:33.208Z,954.52
2018-08-09T02:41:33.208Z,954.59
2018-08-09T02:42:33.203Z,954.58
2018-08-09T02:43:33.199Z,954.62
2018-08-09T02:44:33.197Z,954.66
2018-08-09T02:45:33.195Z,954.65
2018-08-09T02:46:33.212Z,954.69
2018-08-09T02:47:33.194Z,954.72
2018-08-09T02:48:33.185Z,954.71
2018-08-09T02:49:33.181Z,954.71
2018-08-09T02:50:33.178Z,954.71
2018-08-09T02:51:33.178Z,954.72
2018-08-09T02:52:33.174Z,954.69
2018-08-09T02:53:33.171Z,954.69
2018-08-09T02:54:33.166Z,954.65
2018-08-09T02:55:33.164Z,954.72
2018-08-09T02:56:33.163Z,954.68
2018-08-09T02:57:33.167Z,954.7
2018-08-09T02:58:33.155Z,954.68
2018-08-09T02:59:33.153Z,954.66
2018-08-09T03:00:33.150Z,954.65
2018-08-09T03:01:33.146Z,954.66
2018-08-09T03:02:33.143Z,954.68
2018-08-09T03:03:33.141Z,954.7
2018-08-09T03:04:33.138Z,954.68
2018-08-09T03:05:33.134Z,954.69
2018-08-09T03:06:33.131Z,954.67
2018-08-09T03:07:33.129Z,954.71
2018-08-09T03:08:33.124Z,954.71
2018-08-09T03:09:33.123Z,954.67
2018-08-09T03:10:33.120Z,954.65
2018-08-09T03:11:33.116Z,954.66
2018-08-09T03:12:33.111Z,954.64
2018-08-09T03:13:33.110Z,954.65
2018-08-09T03:14:33.106Z,954.58
2018-08-09T03:15:33.102Z,954.56
2018-08-09T03:16:33.103Z,954.58
2018-08-09T03:17:33.096Z,954.56
2018-08-09T03:18:33.094Z,954.58
2018-08-09T03:19:33.090Z,954.63
2018-08-09T03:20:33.086Z,954.62
2018-08-09T03:21:33.083Z,954.63
2018-08-09T03:22:33.081Z,954.61
2018-08-09T03:23:33.077Z,954.59
2018-08-09T03:24:33.077Z,954.6
2018-08-09T03:25:33.071Z,954.62
2018-08-09T03:26:33.068Z,954.62
2018-08-09T03:27:33.068Z,954.64
2018-08-09T03:28:33.061Z,954.63
2018-08-09T03:29:33.058Z,954.61
2018-08-09T03:30:33.055Z,954.57
2018-08-09T03:31:33.060Z,954.57
2018-08-09T03:32:33.049Z,954.5
2018-08-09T03:33:33.044Z,954.52
2018-08-09T03:34:33.041Z,954.48
2018-08-09T03:35:33.038Z,954.5
2018-08-09T03:36:33.040Z,954.47
2018-08-09T03:37:33.031Z,954.49
2018-08-09T03:38:33.028Z,954.5
2018-08-09T03:39:33.026Z,954.48
2018-08-09T03:40:33.022Z,954.44
2018-08-09T03:41:33.017Z,954.5
2018-08-09T03:42:33.016Z,954.47
2018-08-09T03:43:33.013Z,954.45
2018-08-09T03:44:33.010Z,954.47
2018-08-09T03:45:33.005Z,954.44
2018-08-09T03:46:33.001Z,954.5
2018-08-09T03:47:32.999Z,954.42
2018-08-09T03:48:32.993Z,954.44
2018-08-09T03:49:32.992Z,954.43
2018-08-09T03:50:32.989Z,954.44
2018-08-09T03:51:32.984Z,954.46
2018-08-09T03:52:32.981Z,954.46
2018-08-09T03:53:32.988Z,954.46
2018-08-09T03:54:32.974Z,954.48
2018-08-09T03:55:32.971Z,954.48
2018-08-09T03:56:32.968Z,954.45
2018-08-09T03:57:32.963Z,954.47
2018-08-09T03:58:32.961Z,954.42
2018-08-09T03:59:33.013Z,954.41
2018-08-09T04:00:32.954Z,954.37
2018-08-09T04:01:32.952Z,954.34
2018-08-09T04:02:32.949Z,954.33
2018-08-09T04:03:32.943Z,954.36
2018-08-09T04:04:32.942Z,954.4
2018-08-09T04:05:32.939Z,954.38
2018-08-09T04:06:32.934Z,954.4
2018-08-09T04:07:32.930Z,954.44
2018-08-09T04:08:32.927Z,954.44
2018-08-09T04:09:32.923Z,954.46
2018-08-09T04:10:32.919Z,954.44
2018-08-09T04:11:32.917Z,954.44
2018-08-09T04:12:32.913Z,954.42
2018-08-09T04:13:32.909Z,954.43
2018-08-09T04:14:32.915Z,954.41
2018-08-09T04:15:32.901Z,954.4
2018-08-09T04:16:32.900Z,954.39
2018-08-09T04:17:32.896Z,954.38
2018-08-09T04:18:32.893Z,954.38
2018-08-09T04:19:32.889Z,954.37
2018-08-09T04:20:32.885Z,954.33
2018-08-09T04:21:32.888Z,954.3
2018-08-09T04:22:32.879Z,954.31
2018-08-09T04:23:32.876Z,954.36
2018-08-09T04:24:32.870Z,954.35
2018-08-09T04:25:32.868Z,954.37
2018-08-09T04:26:32.937Z,954.38
2018-08-09T04:27:32.864Z,954.36
2018-08-09T04:28:32.859Z,954.38
2018-08-09T04:29:32.854Z,954.4
2018-08-09T04:30:32.855Z,954.42
2018-08-09T04:31:32.850Z,954.41
2018-08-09T04:32:32.845Z,954.41
2018-08-09T04:33:32.844Z,954.33
2018-08-09T04:34:32.839Z,954.41
2018-08-09T04:35:32.838Z,954.37
2018-08-09T04:36:32.831Z,954.42
2018-08-09T04:37:32.832Z,954.39
2018-08-09T04:38:32.825Z,954.42
2018-08-09T04:39:32.821Z,954.41
2018-08-09T04:40:32.819Z,954.44
2018-08-09T04:41:32.815Z,954.42
2018-08-09T04:42:32.813Z,954.43
2018-08-09T04:43:32.809Z,954.46
2018-08-09T04:44:32.805Z,954.49
2018-08-09T04:45:32.808Z,954.44
2018-08-09T04:46:32.799Z,954.47
2018-08-09T04:47:32.803Z,954.47
2018-08-09T04:48:32.793Z,954.47
2018-08-09T04:49:32.789Z,954.46
2018-08-09T04:50:32.786Z,954.41
2018-08-09T04:51:32.782Z,954.44
2018-08-09T04:52:32.786Z,954.42
2018-08-09T04:53:32.777Z,954.42
2018-08-09T04:54:32.773Z,954.41
2018-08-09T04:55:32.770Z,954.41
2018-08-09T04:56:32.769Z,954.44
2018-08-09T04:57:32.763Z,954.41
2018-08-09T04:58:32.830Z,954.45
2018-08-09T04:59:32.758Z,954.42
2018-08-09T05:00:32.755Z,954.45
2018-08-09T05:01:32.756Z,954.43
2018-08-09T05:02:32.749Z,954.44
2018-08-09T05:03:32.747Z,954.44
2018-08-09T05:04:32.747Z,954.4
2018-08-09T05:05:32.740Z,954.41
2018-08-09T05:06:32.737Z,954.41
2018-08-09T05:07:32.733Z,954.39
2018-08-09T05:08:32.730Z,954.42
2018-08-09T05:09:32.728Z,954.38
2018-08-09T05:10:32.727Z,954.4
2018-08-09T05:11:32.723Z,954.44
2018-08-09T05:12:32.720Z,954.43
2018-08-09T05:13:32.718Z,954.46
2018-08-09T05:14:32.715Z,954.43
2018-08-09T05:15:32.714Z,954.39
2018-08-09T05:16:32.710Z,954.43
2018-08-09T05:17:32.709Z,954.4
2018-08-09T05:18:32.710Z,954.43
2018-08-09T05:19:32.701Z,954.44
2018-08-09T05:20:32.698Z,954.4
2018-08-09T05:21:32.697Z,954.42
2018-08-09T05:22:32.695Z,954.43
2018-08-09T05:23:32.691Z,954.42
2018-08-09T05:24:32.688Z,954.44
2018-08-09T05:25:32.686Z,954.44
2018-08-09T05:26:32.776Z,954.41
2018-08-09T05:27:32.681Z,954.36
2018-08-09T05:28:32.680Z,954.36
2018-08-09T05:29:32.678Z,954.37
2018-08-09T05:30:32.674Z,954.34
2018-08-09T05:31:32.673Z,954.31
2018-08-09T05:32:32.671Z,954.36
2018-08-09T05:33:32.671Z,954.36
2018-08-09T05:34:32.668Z,954.3
2018-08-09T05:35:32.662Z,954.34
2018-08-09T05:36:32.662Z,954.36
2018-08-09T05:37:32.659Z,954.34
2018-08-09T05:38:32.657Z,954.37
2018-08-09T05:39:32.652Z,954.38
2018-08-09T05:40:32.652Z,954.4
2018-08-09T05:41:32.649Z,954.41
2018-08-09T05:42:32.647Z,954.41
2018-08-09T05:43:32.645Z,954.46
2018-08-09T05:44:32.643Z,954.44
2018-08-09T05:45:32.641Z,954.42
2018-08-09T05:46:32.640Z,954.44
2018-08-09T05:47:32.638Z,954.46
2018-08-09T05:48:32.637Z,954.45
2018-08-09T05:49:32.632Z,954.42
2018-08-09T05:50:32.631Z,954.42
2018-08-09T05:51:32.629Z,954.4
2018-08-09T05:52:32.627Z,954.45
2018-08-09T05:53:32.626Z,954.42
2018-08-09T05:54:32.627Z,954.43
2018-08-09T05:55:32.623Z,954.45
2018-08-09T05:56:32.621Z,954.48
2018-08-09T05:57:32.618Z,954.51
2018-08-09T05:58:32.711Z,954.52
2018-08-09T05:59:32.614Z,954.51
2018-08-09T06:00:32.613Z,954.48
2018-08-09T06:01:32.612Z,954.5
2018-08-09T06:02:32.611Z,954.52
2018-08-09T06:03:32.609Z,954.53
2018-08-09T06:04:32.610Z,954.54
2018-08-09T06:05:32.611Z,954.54
2018-08-09T06:06:32.608Z,954.51
2018-08-09T06:07:32.605Z,954.53
2018-08-09T06:08:32.601Z,954.51
2018-08-09T06:09:32.600Z,954.57
2018-08-09T06:10:32.598Z,954.53
2018-08-09T06:11:32.596Z,954.56
2018-08-09T06:12:32.595Z,954.56
2018-08-09T06:13:32.665Z,954.55
2018-08-09T06:14:32.593Z,954.52
2018-08-09T06:15:32.590Z,954.52
2018-08-09T06:16:32.590Z,954.49
2018-08-09T06:17:32.589Z,954.49
2018-08-09T06:18:32.590Z,954.53
2018-08-09T06:19:32.588Z,954.54
2018-08-09T06:20:32.586Z,954.59
2018-08-09T06:21:32.582Z,954.57
2018-08-09T06:22:32.581Z,954.58
2018-08-09T06:23:32.581Z,954.56
2018-08-09T06:24:32.581Z,954.6
2018-08-09T06:25:32.580Z,954.59
2018-08-09T06:26:32.596Z,954.6
2018-08-09T06:27:32.577Z,954.62
2018-08-09T06:28:32.579Z,954.62
2018-08-09T06:29:32.576Z,954.61
2018-08-09T06:30:32.575Z,954.63
2018-08-09T06:31:32.573Z,954.63
2018-08-09T06:32:32.571Z,954.64
2018-08-09T06:33:32.720Z,954.66
2018-08-09T06:34:32.570Z,954.6
2018-08-09T06:35:32.570Z,954.62
2018-08-09T06:36:32.568Z,954.63
2018-08-09T06:37:32.568Z,954.63
2018-08-09T06:38:32.567Z,954.64
2018-08-09T06:39:32.570Z,954.66
2018-08-09T06:40:32.565Z,954.64
2018-08-09T06:41:32.566Z,954.63
2018-08-09T06:42:32.563Z,954.62
2018-08-09T06:43:32.564Z,954.59
2018-08-09T06:44:32.565Z,954.58
2018-08-09T06:45:32.562Z,954.6
2018-08-09T06:46:32.562Z,954.57
2018-08-09T06:47:32.575Z,954.63
2018-08-09T06:48:32.562Z,954.6
2018-08-09T06:49:32.562Z,954.63
2018-08-09T06:50:32.561Z,954.6
2018-08-09T06:51:32.563Z,954.65
2018-08-09T06:52:32.562Z,954.69
2018-08-09T06:53:32.563Z,954.7
2018-08-09T06:54:32.559Z,954.69
2018-08-09T06:55:32.565Z,954.72
2018-08-09T06:56:32.560Z,954.72
2018-08-09T06:57:32.561Z,954.75
2018-08-09T06:58:32.562Z,954.75
2018-08-09T06:59:32.566Z,954.69
2018-08-09T07:00:32.565Z,954.63
2018-08-09T07:01:32.564Z,954.68
2018-08-09T07:02:32.565Z,954.61
2018-08-09T07:03:32.574Z,954.58
2018-08-09T07:04:32.574Z,954.61
2018-08-09T07:05:32.574Z,954.63
2018-08-09T07:06:32.576Z,954.66
2018-08-09T07:07:32.584Z,954.63
2018-08-09T07:08:32.586Z,954.65
2018-08-09T07:09:32.591Z,954.65
2018-08-09T07:10:32.588Z,954.69
2018-08-09T07:11:32.592Z,954.67
2018-08-09T07:12:32.596Z,954.64
2018-08-09T07:13:32.600Z,954.69
2018-08-09T07:14:32.608Z,954.73
2018-08-09T07:15:32.610Z,954.7
2018-08-09T07:16:32.615Z,954.66
2018-08-09T07:17:32.619Z,954.68
2018-08-09T07:18:32.628Z,954.66
2018-08-09T07:19:32.636Z,954.64
2018-08-09T07:20:32.637Z,954.62
2018-08-09T07:21:32.644Z,954.62
2018-08-09T07:22:32.651Z,954.62
2018-08-09T07:23:32.656Z,954.6
2018-08-09T07:24:32.663Z,954.66
2018-08-09T07:25:32.669Z,954.63
2018-08-09T07:26:32.821Z,954.63
2018-08-09T07:27:32.725Z,954.61
2018-08-09T07:28:32.691Z,954.57
2018-08-09T07:29:32.699Z,954.56
2018-08-09T07:30:32.706Z,954.63
2018-08-09T07:31:32.713Z,954.73
2018-08-09T07:32:32.721Z,954.77
2018-08-09T07:33:32.728Z,954.75
2018-08-09T07:34:32.738Z,954.77
2018-08-09T07:35:32.746Z,954.67
2018-08-09T07:36:32.800Z,954.72
2018-08-09T07:37:32.763Z,954.79
2018-08-09T07:38:32.769Z,954.89
2018-08-09T07:39:32.859Z,954.9
2018-08-09T07:40:32.785Z,954.89
2018-08-09T07:41:32.796Z,954.81
2018-08-09T07:42:32.802Z,954.84
2018-08-09T07:43:32.811Z,954.9
2018-08-09T07:44:32.820Z,954.88
2018-08-09T07:45:32.828Z,954.57
2018-08-09T07:46:32.837Z,954.31
2018-08-09T07:47:32.847Z,954.27
2018-08-09T07:48:32.929Z,954.3
2018-08-09T07:49:32.866Z,954.3
2018-08-09T07:50:32.871Z,954.3
2018-08-09T07:51:32.881Z,954.25
2018-08-09T07:52:32.889Z,954.25
2018-08-09T07:53:32.896Z,954.23
2018-08-09T07:54:32.915Z,954.25
2018-08-09T07:55:32.914Z,954.21
2018-08-09T07:56:32.921Z,954.2
2018-08-09T07:57:32.932Z,954.23
2018-08-09T07:58:32.939Z,954.2
2018-08-09T07:59:32.947Z,954.19
2018-08-09T08:00:32.954Z,954.19
2018-08-09T08:01:32.963Z,954.2
2018-08-09T08:02:32.969Z,954.19
2018-08-09T08:03:32.980Z,954.14
2018-08-09T08:04:32.986Z,954.19
2018-08-09T08:05:32.998Z,954.23
2018-08-09T08:06:33.001Z,954.19
2018-08-09T08:07:33.007Z,954.19
2018-08-09T08:08:33.158Z,954.2
2018-08-09T08:09:33.028Z,954.18
2018-08-09T08:10:33.035Z,954.12
2018-08-09T08:11:33.039Z,954.22
2018-08-09T08:12:33.044Z,954.16
2018-08-09T08:13:33.052Z,954.13
2018-08-09T08:14:33.063Z,954.14
2018-08-09T08:15:33.063Z,954.11
2018-08-09T08:16:33.076Z,954.12
2018-08-09T08:17:33.079Z,954.1
2018-08-09T08:18:33.086Z,954.13
2018-08-09T08:19:33.091Z,954.13
2018-08-09T08:20:33.133Z,954.1
2018-08-09T08:21:33.105Z,954.16
2018-08-09T08:22:33.111Z,954.1
2018-08-09T08:23:33.118Z,954.14
2018-08-09T08:24:33.124Z,954.12
2018-08-09T08:25:33.131Z,954.12
2018-08-09T08:26:33.137Z,954.14
2018-08-09T08:27:33.144Z,954.13
2018-08-09T08:28:33.150Z,954.14
2018-08-09T08:29:33.155Z,954.09
2018-08-09T08:30:33.161Z,954.09
2018-08-09T08:31:33.170Z,954.08
2018-08-09T08:32:33.175Z,954.04
2018-08-09T08:33:33.181Z,954.02
2018-08-09T08:34:33.246Z,954.03
2018-08-09T08:35:33.194Z,954.03
2018-08-09T08:36:33.200Z,954.03
2018-08-09T08:37:33.206Z,954.03
2018-08-09T08:38:33.211Z,954
2018-08-09T08:39:33.217Z,953.98
2018-08-09T08:40:33.224Z,953.97
2018-08-09T08:41:33.340Z,953.97
2018-08-09T08:42:33.235Z,953.97
2018-08-09T08:43:33.240Z,953.98
2018-08-09T08:44:33.250Z,953.93
2018-08-09T08:45:33.300Z,953.92
2018-08-09T08:46:33.259Z,953.96
2018-08-09T08:47:33.325Z,953.88
2018-08-09T08:48:33.271Z,953.89
2018-08-09T08:49:33.276Z,953.9
2018-08-09T08:50:33.281Z,953.93
2018-08-09T08:51:33.286Z,953.92
2018-08-09T08:52:33.292Z,953.87
2018-08-09T08:53:33.297Z,953.86
2018-08-09T08:54:33.304Z,953.85
2018-08-09T08:55:33.310Z,953.88
2018-08-09T08:56:33.316Z,953.84
2018-08-09T08:57:33.322Z,953.84
2018-08-09T08:58:33.327Z,953.85
2018-08-09T08:59:33.334Z,953.83
2018-08-09T09:00:33.340Z,953.82
2018-08-09T09:01:33.346Z,953.79
2018-08-09T09:02:33.352Z,953.78
2018-08-09T09:03:33.359Z,953.78
2018-08-09T09:04:33.368Z,953.77
2018-08-09T09:05:33.370Z,953.76
2018-08-09T09:06:33.376Z,953.8
2018-08-09T09:07:33.382Z,953.77
2018-08-09T09:08:33.388Z,953.77
2018-08-09T09:09:33.395Z,953.75
2018-08-09T09:10:33.400Z,953.71
2018-08-09T09:11:33.407Z,953.65
2018-08-09T09:12:33.414Z,953.7
2018-08-09T09:13:33.430Z,953.64
2018-08-09T09:14:33.426Z,953.62
2018-08-09T09:15:33.431Z,953.62
2018-08-09T09:16:33.438Z,953.6
2018-08-09T09:17:33.444Z,953.57
2018-08-09T09:18:33.453Z,953.59
2018-08-09T09:19:33.456Z,953.62
2018-08-09T09:20:33.461Z,953.63
2018-08-09T09:21:33.471Z,953.59
2018-08-09T09:22:33.474Z,953.63
2018-08-09T09:23:33.482Z,953.63
2018-08-09T09:24:33.487Z,953.54
2018-08-09T09:25:33.494Z,953.57
2018-08-09T09:26:33.500Z,953.54
2018-08-09T09:27:33.508Z,953.53
2018-08-09T09:28:33.514Z,953.46
2018-08-09T09:29:33.519Z,953.43
2018-08-09T09:30:33.528Z,953.43
2018-08-09T09:31:33.533Z,953.37
2018-08-09T09:32:33.541Z,953.36
2018-08-09T09:33:33.547Z,953.36
2018-08-09T09:34:33.560Z,953.35
2018-08-09T09:35:33.561Z,953.36
2018-08-09T09:36:33.568Z,953.38
2018-08-09T09:37:33.575Z,953.37
2018-08-09T09:38:33.584Z,953.37
2018-08-09T09:39:33.590Z,953.32
2018-08-09T09:40:33.596Z,953.37
2018-08-09T09:41:33.609Z,953.34
2018-08-09T09:42:33.611Z,953.36
2018-08-09T09:43:33.616Z,953.35
2018-08-09T09:44:33.625Z,953.3
2018-08-09T09:45:33.630Z,953.3
2018-08-09T09:46:33.638Z,953.3
2018-08-09T09:47:33.648Z,953.31
2018-08-09T09:48:33.657Z,953.3
2018-08-09T09:49:33.663Z,953.29
2018-08-09T09:50:33.668Z,953.3
2018-08-09T09:51:33.675Z,953.26
2018-08-09T09:52:33.683Z,953.29
2018-08-09T09:53:33.689Z,953.29
2018-08-09T09:54:33.696Z,953.26
2018-08-09T09:55:33.704Z,953.21
2018-08-09T09:56:33.713Z,953.26
2018-08-09T09:57:33.720Z,953.25
2018-08-09T09:58:33.727Z,953.27
2018-08-09T09:59:33.734Z,953.29
2018-08-09T10:00:33.744Z,953.31
2018-08-09T10:01:33.752Z,953.29
2018-08-09T10:02:33.761Z,953.26
2018-08-09T10:03:33.768Z,953.25
2018-08-09T10:04:33.774Z,953.22
2018-08-09T10:05:33.782Z,953.27
2018-08-09T10:06:33.789Z,953.26
2018-08-09T10:07:33.798Z,953.27
2018-08-09T10:08:33.806Z,953.19
2018-08-09T10:09:33.813Z,953.23
2018-08-09T10:10:33.845Z,953.17
2018-08-09T10:11:33.828Z,953.12
2018-08-09T10:12:33.836Z,953.17
2018-08-09T10:13:33.845Z,953.18
2018-08-09T10:14:33.851Z,953.21
2018-08-09T10:15:33.858Z,953.1
2018-08-09T10:16:33.865Z,953.09
2018-08-09T10:17:33.874Z,953.1
2018-08-09T10:18:33.883Z,953.03
2018-08-09T10:19:33.888Z,953.04
2018-08-09T10:20:33.896Z,953.02
2018-08-09T10:21:33.905Z,953.03
2018-08-09T10:22:33.911Z,953.06
2018-08-09T10:23:33.920Z,953.03
2018-08-09T10:24:33.928Z,952.96
2018-08-09T10:25:33.937Z,952.92
2018-08-09T10:26:33.943Z,952.89
2018-08-09T10:27:33.951Z,952.96
2018-08-09T10:28:33.959Z,952.92
2018-08-09T10:29:33.967Z,952.86
2018-08-09T10:30:33.974Z,952.87
2018-08-09T10:31:33.981Z,952.89
2018-08-09T10:32:33.989Z,952.83
2018-08-09T10:33:33.997Z,952.84
2018-08-09T10:34:34.006Z,952.86
2018-08-09T10:35:34.092Z,952.83
2018-08-09T10:36:34.020Z,952.86
2018-08-09T10:37:34.028Z,952.88
2018-08-09T10:38:34.036Z,952.86
2018-08-09T10:39:34.043Z,952.83
2018-08-09T10:40:34.060Z,952.87
2018-08-09T10:41:34.059Z,952.85
2018-08-09T10:42:34.065Z,952.81
2018-08-09T10:43:34.074Z,952.83
2018-08-09T10:44:34.081Z,952.78
2018-08-09T10:45:34.090Z,952.75
2018-08-09T10:46:34.097Z,952.76
2018-08-09T10:47:34.103Z,952.73
2018-08-09T10:48:34.112Z,952.72
2018-08-09T10:49:34.125Z,952.7
2018-08-09T10:50:34.127Z,952.66
2018-08-09T10:51:34.135Z,952.7
2018-08-09T10:52:34.143Z,952.59
2018-08-09T10:53:34.152Z,952.61
2018-08-09T10:54:34.159Z,952.55
2018-08-09T10:55:34.203Z,952.57
2018-08-09T10:56:34.174Z,952.58
2018-08-09T10:57:34.181Z,952.6
2018-08-09T10:58:34.193Z,952.62
2018-08-09T10:59:34.196Z,952.57
2018-08-09T11:00:34.204Z,952.59
2018-08-09T11:01:34.214Z,952.51
2018-08-09T11:02:34.220Z,952.54
2018-08-09T11:03:34.229Z,952.53
2018-08-09T11:04:34.235Z,952.5
2018-08-09T11:05:34.244Z,952.5
2018-08-09T11:06:34.251Z,952.5
2018-08-09T11:07:34.261Z,952.53
2018-08-09T11:08:34.286Z,952.54
2018-08-09T11:09:34.273Z,952.52
2018-08-09T11:10:34.284Z,952.44
2018-08-09T11:11:34.288Z,952.54
2018-08-09T11:12:34.295Z,952.55
2018-08-09T11:13:34.303Z,952.55
2018-08-09T11:14:34.310Z,952.58
2018-08-09T11:15:34.318Z,952.6
2018-08-09T11:16:34.326Z,952.6
2018-08-09T11:17:34.334Z,952.6
2018-08-09T11:18:34.346Z,952.61
2018-08-09T11:19:34.348Z,952.61
2018-08-09T11:20:34.358Z,952.6
2018-08-09T11:21:34.364Z,952.57
2018-08-09T11:22:34.373Z,952.56
2018-08-09T11:23:34.384Z,952.51
2018-08-09T11:24:34.391Z,952.51
2018-08-09T11:25:34.395Z,952.48
2018-08-09T11:26:34.403Z,952.53
2018-08-09T11:27:34.412Z,952.49
2018-08-09T11:28:34.419Z,952.44
2018-08-09T11:29:34.463Z,952.42
2018-08-09T11:30:34.436Z,952.38
2018-08-09T11:31:34.446Z,952.36
2018-08-09T11:32:34.452Z,952.39
2018-08-09T11:33:34.456Z,952.32
2018-08-09T11:34:34.465Z,952.3
2018-08-09T11:35:34.473Z,952.28
2018-08-09T11:36:34.482Z,952.3
2018-08-09T11:37:34.490Z,952.24
2018-08-09T11:38:34.498Z,952.22
2018-08-09T11:39:34.505Z,952.27
2018-08-09T11:40:34.513Z,952.23
2018-08-09T11:41:34.522Z,952.21
2018-08-09T11:42:34.530Z,952.16
2018-08-09T11:43:34.587Z,952.17
2018-08-09T11:44:34.546Z,952.21
2018-08-09T11:45:34.555Z,952.17
2018-08-09T11:46:34.561Z,952.11
2018-08-09T11:47:34.569Z,952.12
2018-08-09T11:48:34.579Z,952.1
2018-08-09T11:49:34.590Z,952.1
2018-08-09T11:50:34.595Z,952.06
2018-08-09T11:51:34.603Z,952.02
2018-08-09T11:52:34.610Z,952.09
2018-08-09T11:53:34.620Z,952.1
2018-08-09T11:54:34.627Z,952.02
2018-08-09T11:55:34.634Z,952
2018-08-09T11:56:34.687Z,952.03
2018-08-09T11:57:34.651Z,952
2018-08-09T11:58:34.661Z,951.95
2018-08-09T11:59:34.668Z,951.95
2018-08-09T12:00:34.679Z,951.98
2018-08-09T12:01:34.771Z,951.99
2018-08-09T12:02:34.693Z,951.97
2018-08-09T12:03:34.703Z,951.97
2018-08-09T12:04:34.777Z,951.95
2018-08-09T12:05:34.717Z,951.94
2018-08-09T12:06:34.727Z,951.94
2018-08-09T12:07:34.735Z,951.91
2018-08-09T12:08:34.742Z,951.95
2018-08-09T12:09:34.805Z,951.99
2018-08-09T12:10:34.760Z,951.9
2018-08-09T12:11:34.766Z,951.86
2018-08-09T12:12:34.776Z,951.79
2018-08-09T12:13:34.789Z,951.84
2018-08-09T12:14:34.792Z,951.84
2018-08-09T12:15:34.800Z,951.8
2018-08-09T12:16:34.807Z,951.71
2018-08-09T12:17:34.816Z,951.76
2018-08-09T12:18:34.827Z,951.75
2018-08-09T12:19:34.831Z,951.76
2018-08-09T12:20:34.879Z,951.78
2018-08-09T12:21:34.850Z,951.71
2018-08-09T12:22:34.856Z,951.72
2018-08-09T12:23:34.863Z,951.73
2018-08-09T12:24:34.871Z,951.74
2018-08-09T12:25:34.883Z,951.72
2018-08-09T12:26:34.886Z,951.72
2018-08-09T12:27:34.896Z,951.68
2018-08-09T12:28:34.904Z,951.64
2018-08-09T12:29:34.912Z,951.7
2018-08-09T12:30:34.919Z,951.56
2018-08-09T12:31:34.928Z,951.64